Time;durP1;ratioP1;P1;durP2;ratioP2;P2;SDS_P1;SDS_P2;PMS_P1;PMS_P2;Temp;Humidity;BMP_temperature;BMP_pressure;BME280_temperature;BME280_humidity;BME280_pressure;Samples;Min_cycle;Max_cycle;Signal;HPM_P1;HPM_P2
2022/01/20 00:48:42;;;;;;;24.20;11.10;;;;;;;-7.52;65.82;99696.98;19724;1304;3055605;-71
2022/01/20 00:52:04;;;;;;;25.40;10.60;;;;;;;-6.44;64.42;99689.63;18533;1301;3057755;-73
2022/01/20 00:55:00;;;;;;;28.70;11.50;;;;;;;-6.60;64.17;99698.83;20169;1305;3050102;-73
2022/01/20 00:58:49;;;;;;;22.50;8.90;;;;;;;-7.35;65.54;99698.11;18909;1302;3055777;-67
2022/01/20 01:01:46;;;;;;;22.70;8.90;;;;;;;-7.77;66.96;99699.31;19012;1300;3051951;-70
2022/01/20 01:05:00;;;;;;;27.70;9.50;;;;;;;-7.98;67.26;99687.89;19093;1306;3070913;-72
2022/01/20 01:08:23;;;;;;;23.40;9.00;;;;;;;-8.12;67.94;99683.91;19860;1297;3049848;-69
2022/01/20 01:11:51;;;;;;;27.60;9.20;;;;;;;-8.32;68.71;99681.65;20655;1298;3054471;-70
2022/01/20 01:14:55;;;;;;;16.30;6.20;;;;;;;-8.74;71.20;99686.98;20014;1304;3054656;-71
2022/01/20 01:32:10;;;;;;;32.80;12.20;;;;;;;-7.18;67.08;99645.77;20990;1301;3070725;-71
2022/01/20 01:35:12;;;;;;;32.60;9.60;;;;;;;-7.43;67.28;99639.95;19955;1298;3050139;-70
2022/01/20 02:23:49;;;;;;;16.50;6.60;;;;;;;-7.19;67.51;99648.11;21138;1301;3052487;-73
2022/01/20 02:26:18;;;;;;;16.70;7.30;;;;;;;-7.40;67.61;99658.36;25339;1301;3055100;-70
2022/01/20 02:28:47;;;;;;;20.40;7.00;;;;;;;-7.78;68.94;99665.61;25370;1304;3026547;-67
2022/01/20 02:31:18;;;;;;;19.10;6.70;;;;;;;-7.96;69.64;99659.87;25348;1303;3051820;-73
2022/01/20 02:33:46;;;;;;;13.70;4.60;;;;;;;-7.90;70.11;99655.02;25400;1301;3026574;-70
2022/01/20 02:36:17;;;;;;;15.00;5.10;;;;;;;-7.96;69.77;99652.55;25402;1301;3051581;-69
2022/01/20 02:38:54;;;;;;;17.50;7.40;;;;;;;-8.00;69.48;99643.13;25396;1301;3026499;-66
2022/01/20 02:46:59;;;;;;;15.70;5.90;;;;;;;-8.36;70.69;99632.98;25464;1301;3052131;-67
2022/01/20 02:49:28;;;;;;;19.70;7.60;;;;;;;-7.16;68.36;99620.75;25415;1301;3026286;-72
2022/01/20 02:51:58;;;;;;;24.20;9.90;;;;;;;-7.03;66.08;99613.10;25386;1301;3025578;-69
2022/01/20 02:54:27;;;;;;;27.50;10.30;;;;;;;-7.23;65.69;99611.46;25371;1304;3053665;-71
2022/01/20 02:56:56;;;;;;;20.60;9.40;;;;;;;-7.59;66.78;99618.63;25404;1303;3027253;-67
2022/01/20 02:59:25;;;;;;;24.20;8.40;;;;;;;-7.52;66.05;99622.13;25283;1304;3049071;-71
2022/01/20 03:01:54;;;;;;;18.80;6.70;;;;;;;-7.94;67.06;99624.88;25259;1303;3025871;-69
2022/01/20 03:04:26;;;;;;;19.70;8.00;;;;;;;-8.17;67.28;99617.69;25424;1303;3026089;-71
2022/01/20 03:06:55;;;;;;;21.60;8.40;;;;;;;-8.51;68.59;99621.02;25436;1303;3048932;-73
2022/01/20 03:09:25;;;;;;;25.60;7.80;;;;;;;-8.80;69.93;99615.37;25298;1304;3025592;-69
2022/01/20 03:11:54;;;;;;;14.70;5.90;;;;;;;-8.81;69.85;99605.00;25382;1301;3025412;-70
2022/01/20 03:14:35;;;;;;;19.60;6.90;;;;;;;-8.35;68.90;99604.28;25393;1301;3049313;-71
2022/01/20 03:17:05;;;;;;;17.80;8.40;;;;;;;-7.07;66.64;99598.73;25318;1301;3025884;-74
2022/01/20 03:19:34;;;;;;;22.00;9.30;;;;;;;-6.74;64.19;99588.38;25399;1301;3026746;-73
2022/01/20 03:22:03;;;;;;;12.70;5.70;;;;;;;-7.27;65.73;99591.68;25428;1301;3049846;-69
2022/01/20 03:24:33;;;;;;;18.20;8.60;;;;;;;-7.51;66.17;99596.45;25427;1303;3025834;-72
2022/01/20 03:27:02;;;;;;;12.60;5.10;;;;;;;-7.64;66.41;99600.35;25426;1303;3026200;-69
2022/01/20 03:29:31;;;;;;;11.50;5.00;;;;;;;-7.51;66.09;99596.63;25394;1303;3049212;-68
2022/01/20 03:32:00;;;;;;;15.80;7.00;;;;;;;-7.57;66.41;99598.39;25294;1305;3025971;-66
2022/01/20 03:34:28;;;;;;;17.20;6.50;;;;;;;-7.68;66.85;99593.98;25315;1301;3056403;-70
2022/01/20 03:37:03;;;;;;;13.60;4.90;;;;;;;-7.63;66.72;99593.05;25402;1301;3026024;-65
2022/01/20 03:39:44;;;;;;;18.30;6.90;;;;;;;-7.82;68.26;99593.60;25429;1301;3055325;-74
2022/01/20 03:42:13;;;;;;;14.80;5.40;;;;;;;-7.93;69.10;99592.58;25445;1300;3025944;-70
2022/01/20 03:44:42;;;;;;;10.00;4.40;;;;;;;-7.78;68.30;99594.52;25305;1303;3049622;-68
2022/01/20 03:47:12;;;;;;;18.70;7.00;;;;;;;-7.66;67.80;99592.48;25395;1301;3025126;-73
2022/01/20 03:52:30;;;;;;;20.50;8.60;;;;;;;-7.91;67.02;99591.43;25333;1301;3051470;-72
2022/01/20 03:54:59;;;;;;;42.40;14.10;;;;;;;-8.07;67.15;99597.80;25451;1300;3025030;-70
2022/01/20 03:57:28;;;;;;;19.80;8.00;;;;;;;-7.85;68.11;99601.89;25414;1301;3058216;-71
2022/01/20 03:59:57;;;;;;;30.20;10.20;;;;;;;-6.85;65.92;99592.02;25446;1301;3025863;-73
2022/01/20 04:02:46;;;;;;;29.80;12.20;;;;;;;-6.40;63.47;99592.86;25409;1300;3053331;-72
2022/01/20 04:05:39;;;;;;;27.80;11.30;;;;;;;-7.13;62.97;99591.00;25353;1301;3058064;-69
2022/01/20 04:08:33;;;;;;;26.50;11.40;;;;;;;-7.72;64.69;99593.41;25375;1300;3048037;-70
2022/01/20 04:11:05;;;;;;;49.80;17.90;;;;;;;-8.04;65.59;99601.91;25442;1301;3054276;-71
2022/01/20 04:13:35;;;;;;;38.80;16.70;;;;;;;-8.34;66.06;99599.39;25385;1303;3025193;-69
2022/01/20 04:16:13;;;;;;;33.20;13.90;;;;;;;-8.47;66.72;99602.56;25376;1301;3024901;-67
2022/01/20 04:18:56;;;;;;;42.10;16.50;;;;;;;-8.75;67.88;99600.35;25350;1301;3047947;-67
2022/01/20 04:21:27;;;;;;;35.70;13.30;;;;;;;-9.03;69.71;99603.54;25443;1300;3051826;-74
2022/01/20 04:23:57;;;;;;;13.10;5.30;;;;;;;-9.37;71.65;99598.56;25344;1304;3025290;-73
2022/01/20 04:26:26;;;;;;;17.50;6.50;;;;;;;-8.77;72.06;99591.79;25431;1301;3025722;-69
2022/01/20 04:28:56;;;;;;;11.90;5.30;;;;;;;-7.85;68.01;99583.02;25446;1301;3026656;-68
2022/01/20 04:31:27;;;;;;;24.50;8.40;;;;;;;-7.44;67.01;99578.34;25410;1303;3052561;-72
2022/01/20 04:33:59;;;;;;;16.10;7.00;;;;;;;-7.22;66.15;99575.21;25408;1301;3026713;-67
2022/01/20 04:36:30;;;;;;;28.90;10.90;;;;;;;-7.32;64.81;99578.16;25394;1300;3026696;-69
2022/01/20 04:39:01;;;;;;;28.10;10.00;;;;;;;-7.84;65.85;99583.54;25345;1304;3028720;-67
2022/01/20 04:41:30;;;;;;;25.50;9.70;;;;;;;-7.92;66.11;99584.94;25432;1301;3025222;-69
2022/01/20 04:44:03;;;;;;;42.10;15.10;;;;;;;-8.41;67.17;99577.01;25419;1300;3025232;-75
2022/01/20 04:46:40;;;;;;;31.00;12.10;;;;;;;-8.74;68.52;99572.87;25352;1303;3025095;-71
2022/01/20 04:57:03;;;;;;;31.50;10.60;;;;;;;-8.74;69.15;99573.02;25428;1303;3053160;-71
2022/01/20 04:57:41;;;;;;;64.60;14.90;;;;;;;-8.51;68.98;99573.94;25396;1304;3051274;-64
2022/01/20 05:00:11;;;;;;;57.20;16.30;;;;;;;-7.52;67.11;99579.20;25421;1303;3025507;-69
2022/01/20 05:03:01;;;;;;;30.80;9.30;;;;;;;-7.06;66.69;99574.91;25434;1301;3054908;-66
2022/01/20 05:05:32;;;;;;;17.00;6.20;;;;;;;-7.28;67.32;99574.80;25346;1301;3026220;-74
2022/01/20 05:08:08;;;;;;;79.30;22.10;;;;;;;-7.27;65.36;99585.37;25382;1301;3054513;-75
2022/01/20 05:10:39;;;;;;;56.70;17.80;;;;;;;-7.76;65.46;99595.40;25369;1303;3026554;-68
2022/01/20 05:13:21;;;;;;;42.10;14.10;;;;;;;-7.75;65.97;99599.15;25356;1301;3027344;-66
2022/01/20 05:15:50;;;;;;;39.20;12.80;;;;;;;-8.06;67.22;99604.09;25374;1301;3047463;-73
2022/01/20 05:18:19;;;;;;;41.30;15.00;;;;;;;-8.30;68.81;99605.56;25369;1303;3025918;-72
2022/01/20 05:20:49;;;;;;;41.80;13.70;;;;;;;-8.22;68.26;99612.16;25385;1301;3069517;-71
2022/01/20 05:23:18;;;;;;;31.00;11.30;;;;;;;-8.30;68.02;99609.80;25408;1301;3026207;-68
2022/01/20 05:25:47;;;;;;;32.30;12.10;;;;;;;-8.21;66.72;99607.41;25417;1304;3052525;-69
2022/01/20 05:28:16;;;;;;;45.50;17.60;;;;;;;-8.70;68.11;99610.63;25384;1301;3026279;-66
2022/01/20 05:30:45;;;;;;;37.70;14.00;;;;;;;-8.89;68.56;99614.16;25399;1301;3024931;-73
2022/01/20 05:33:23;;;;;;;27.60;12.70;;;;;;;-8.89;68.89;99610.07;25487;1301;3051779;-67
2022/01/20 05:35:52;;;;;;;41.00;14.90;;;;;;;-8.24;66.70;99612.80;25326;1303;3026749;-72
2022/01/20 05:38:21;;;;;;;42.80;15.20;;;;;;;-8.24;66.70;99615.86;25418;1304;3052826;-73
2022/01/20 05:40:51;;;;;;;51.70;18.90;;;;;;;-8.59;66.73;99617.64;25435;1301;3026010;-71
2022/01/20 05:43:21;;;;;;;70.30;21.40;;;;;;;-8.82;67.30;99622.80;25432;1300;3027350;-67
2022/01/20 05:45:52;;;;;;;142.30;33.80;;;;;;;-9.19;68.66;99626.79;25379;1301;3026879;-66
2022/01/20 05:48:32;;;;;;;144.10;36.80;;;;;;;-9.62;70.24;99624.64;25379;1304;3026747;-71
2022/01/20 05:51:24;;;;;;;116.20;28.90;;;;;;;-9.76;71.44;99626.87;25456;1300;3051584;-67
2022/01/20 05:53:54;;;;;;;112.00;31.00;;;;;;;-9.68;71.29;99624.33;25339;1303;3027040;-68
2022/01/20 05:56:23;;;;;;;68.40;17.90;;;;;;;-9.62;71.46;99621.93;25403;1301;3025151;-69
2022/01/20 05:58:52;;;;;;;55.40;14.80;;;;;;;-9.19;70.67;99617.10;25367;1303;3052263;-74
2022/01/20 06:01:21;;;;;;;38.70;13.40;;;;;;;-8.54;68.17;99609.56;25431;1303;3026007;-72
2022/01/20 06:03:50;;;;;;;40.20;13.80;;;;;;;-8.15;67.32;99616.02;25351;1303;3051185;-73
2022/01/20 06:06:22;;;;;;;33.00;12.50;;;;;;;-7.99;66.00;99617.64;25495;1301;3026359;-64
2022/01/20 06:08:52;;;;;;;30.60;12.70;;;;;;;-8.38;66.61;99607.30;25427;1303;3026135;-70
2022/01/20 06:11:21;;;;;;;30.30;10.80;;;;;;;-8.82;67.78;99613.30;25446;1301;3024853;-74
2022/01/20 06:13:51;;;;;;;35.30;10.20;;;;;;;-9.02;68.38;99611.36;25449;1301;3025717;-70
2022/01/20 06:16:21;;;;;;;37.80;11.80;;;;;;;-8.97;68.72;99603.46;25371;1301;3025718;-73
2022/01/20 06:18:51;;;;;;;35.70;13.20;;;;;;;-9.03;69.80;99602.66;25446;1301;3025861;-68
2022/01/20 06:21:20;;;;;;;28.50;9.80;;;;;;;-9.06;70.40;99611.27;25449;1301;3026195;-75
2022/01/20 06:23:50;;;;;;;21.30;8.40;;;;;;;-8.98;70.48;99600.57;25395;1303;3025932;-71
2022/01/20 06:26:19;;;;;;;37.70;12.00;;;;;;;-8.96;70.05;99600.77;25430;1303;3026794;-75
2022/01/20 06:28:48;;;;;;;24.70;8.50;;;;;;;-9.19;71.22;99606.09;25347;1304;3026425;-69
2022/01/20 06:31:18;;;;;;;44.30;13.60;;;;;;;-8.19;69.21;99602.35;25442;1303;3052948;-70
2022/01/20 06:33:47;;;;;;;31.80;12.30;;;;;;;-8.03;68.01;99598.02;25438;1301;3028414;-71
2022/01/20 06:36:16;;;;;;;25.80;10.40;;;;;;;-7.97;67.20;99593.55;25399;1301;3029110;-68
2022/01/20 06:38:45;;;;;;;29.60;9.50;;;;;;;-8.13;67.57;99599.39;25374;1303;3027444;-71
2022/01/20 06:41:15;;;;;;;39.00;13.40;;;;;;;-8.15;67.52;99595.46;25458;1300;3051412;-73
2022/01/20 06:43:45;;;;;;;30.20;11.50;;;;;;;-8.12;67.93;99597.20;25446;1301;3028342;-70
2022/01/20 06:46:14;;;;;;;41.40;13.90;;;;;;;-8.15;68.31;99598.18;25379;1300;3028725;-75
2022/01/20 06:49:03;;;;;;;32.90;12.60;;;;;;;-8.40;69.31;99592.98;25399;1303;3051581;-74
2022/01/20 06:51:38;;;;;;;37.50;13.20;;;;;;;-8.48;70.23;99588.27;25400;1300;3050589;-69
2022/01/20 06:54:08;;;;;;;22.30;8.00;;;;;;;-8.43;69.90;99581.89;25385;1301;3025437;-74
2022/01/20 06:56:41;;;;;;;47.00;15.20;;;;;;;-8.39;69.82;99575.84;25425;1301;3025937;-72
2022/01/20 06:59:13;;;;;;;36.90;15.50;;;;;;;-8.52;70.54;99570.20;25453;1301;3027869;-65
2022/01/20 07:01:42;;;;;;;44.70;14.80;;;;;;;-8.37;70.67;99560.25;25429;1301;3026361;-65
2022/01/20 07:04:13;;;;;;;39.50;13.80;;;;;;;-8.46;71.58;99558.07;25440;1300;3027428;-69
2022/01/20 07:06:42;;;;;;;43.10;16.40;;;;;;;-8.30;71.46;99556.95;25366;1303;3027588;-70
2022/01/20 07:09:30;;;;;;;55.10;18.70;;;;;;;-8.41;72.42;99558.80;25414;1300;3051599;-73
2022/01/20 07:12:03;;;;;;;54.30;18.10;;;;;;;-8.31;72.48;99560.34;25418;1300;3027234;-74
2022/01/20 07:14:32;;;;;;;49.90;18.40;;;;;;;-8.25;72.35;99564.19;25415;1299;3024975;-67
2022/01/20 07:17:01;;;;;;;48.80;15.90;;;;;;;-8.15;72.20;99566.21;25479;1300;3025483;-74
2022/01/20 07:19:32;;;;;;;48.40;18.70;;;;;;;-7.95;71.85;99569.26;25406;1300;3053085;-67
2022/01/20 07:22:01;;;;;;;54.40;21.10;;;;;;;-7.84;72.46;99572.14;25421;1300;3026710;-73
2022/01/20 07:24:32;;;;;;;44.60;18.50;;;;;;;-7.92;72.45;99568.11;25432;1300;3026715;-68
2022/01/20 07:27:09;;;;;;;64.30;22.00;;;;;;;-7.95;73.51;99574.02;25411;1300;3053076;-70
2022/01/20 07:29:38;;;;;;;37.90;14.50;;;;;;;-7.70;72.77;99566.57;25453;1301;3028758;-71
2022/01/20 07:32:07;;;;;;;45.40;16.30;;;;;;;-7.59;71.92;99558.56;25461;1301;3051599;-64
2022/01/20 07:34:46;;;;;;;48.90;18.90;;;;;;;-7.68;72.15;99559.45;23622;1300;3026195;-71
2022/01/20 07:41:55;;;;;;;51.60;20.20;;;;;;;-7.59;72.49;99551.75;25416;1300;3056408;-69
2022/01/20 07:44:43;;;;;;;56.20;20.60;;;;;;;-7.45;72.30;99549.89;25444;1300;3048571;-75
2022/01/20 07:47:24;;;;;;;52.30;22.70;;;;;;;-7.30;72.33;99544.66;25409;1301;3054532;-72
2022/01/20 07:49:59;;;;;;;65.80;23.70;;;;;;;-7.21;71.62;99541.01;25463;1300;3051729;-69
2022/01/20 07:52:28;;;;;;;67.80;25.70;;;;;;;-7.26;72.55;99544.70;25374;1304;3026574;-73
2022/01/20 07:54:57;;;;;;;51.40;20.30;;;;;;;-7.26;72.12;99548.62;25383;1301;3025769;-73
2022/01/20 07:57:27;;;;;;;81.10;28.10;;;;;;;-7.22;72.25;99550.89;25432;1301;3025999;-68
2022/01/20 07:59:56;;;;;;;78.00;29.20;;;;;;;-7.22;72.68;99552.94;25403;1300;3028596;-67
2022/01/20 08:02:29;;;;;;;64.20;25.30;;;;;;;-6.91;72.36;99545.45;25422;1301;3051487;-69
2022/01/20 08:05:00;;;;;;;67.50;28.00;;;;;;;-6.83;71.81;99548.61;25398;1301;3026533;-71
2022/01/20 08:18:30;;;;;;;92.00;32.60;;;;;;;-6.49;72.70;99554.42;19524;1304;3053542;-71
2022/01/20 08:21:56;;;;;;;97.70;34.40;;;;;;;-6.54;72.60;99548.23;19125;1303;3057615;-71
2022/01/20 08:28:26;;;;;;;94.00;31.30;;;;;;;-6.21;71.94;99541.20;18278;1308;3054724;-72
2022/01/20 08:31:55;;;;;;;98.80;35.90;;;;;;;-6.01;71.65;99535.90;18385;1307;3052659;-70
2022/01/20 08:35:35;;;;;;;77.60;30.20;;;;;;;-5.92;71.25;99544.64;19000;1301;3070160;-70
2022/01/20 08:42:41;;;;;;;80.50;29.90;;;;;;;-5.85;71.78;99535.48;19094;1300;3053586;-72
2022/01/20 08:45:44;;;;;;;82.60;31.90;;;;;;;-5.90;72.33;99534.42;18787;1303;3054495;-71
2022/01/20 08:48:58;;;;;;;71.50;28.40;;;;;;;-5.81;72.13;99537.89;19012;1300;3055513;-71
2022/01/20 08:52:15;;;;;;;79.50;29.60;;;;;;;-5.65;72.16;99525.19;19226;1304;3051666;-70
2022/01/20 08:56:04;;;;;;;69.30;26.60;;;;;;;-5.50;71.90;99518.29;19403;1301;3056843;-71
2022/01/20 09:11:18;;;;;;;72.80;26.80;;;;;;;-5.33;72.29;99521.09;18798;1304;3053043;-75
2022/01/20 09:17:36;;;;;;;89.20;33.20;;;;;;;-5.31;72.77;99501.13;18077;1308;3058230;-72
2022/01/20 09:20:05;;;;;;;97.40;33.30;;;;;;;-5.18;72.62;99503.23;25449;1300;3051101;-68
2022/01/20 09:22:35;;;;;;;112.60;37.10;;;;;;;-5.07;72.24;99499.33;25400;1300;3027069;-70
2022/01/20 09:25:06;;;;;;;120.40;38.90;;;;;;;-4.78;71.88;99492.92;25386;1301;3026595;-72
2022/01/20 09:27:38;;;;;;;125.20;39.90;;;;;;;-4.66;72.44;99493.79;25405;1300;3070912;-68
2022/01/20 09:30:18;;;;;;;100.90;37.10;;;;;;;-4.47;71.58;99487.14;25370;1300;3051002;-71
2022/01/20 09:33:00;;;;;;;141.80;45.80;;;;;;;-4.47;72.10;99474.83;25406;1301;3052103;-73
2022/01/20 09:35:31;;;;;;;128.60;43.30;;;;;;;-4.28;71.92;99471.42;25351;1304;3053356;-72
2022/01/20 09:38:01;;;;;;;143.20;45.50;;;;;;;-4.25;71.55;99466.98;25384;1300;3027570;-73
2022/01/20 09:40:31;;;;;;;181.90;56.70;;;;;;;-4.29;72.08;99461.50;25375;1300;3026505;-69
2022/01/20 09:43:07;;;;;;;202.00;56.50;;;;;;;-4.20;72.60;99454.65;25415;1300;3053022;-70
2022/01/20 09:45:36;;;;;;;169.40;47.80;;;;;;;-4.18;72.38;99446.95;25388;1300;3027960;-69
2022/01/20 09:48:06;;;;;;;139.50;45.70;;;;;;;-4.15;72.99;99444.73;25333;1303;3026387;-70
2022/01/20 09:50:54;;;;;;;93.00;31.60;;;;;;;-4.27;73.75;99436.52;25409;1300;3047217;-72
2022/01/20 09:53:43;;;;;;;71.80;31.10;;;;;;;-3.49;72.17;99426.91;25407;1301;3053450;-69
2022/01/20 09:56:35;;;;;;;71.90;29.50;;;;;;;-3.05;70.52;99416.40;25327;1301;3053879;-66
2022/01/20 09:59:05;;;;;;;62.30;27.50;;;;;;;-3.19;70.72;99410.84;25426;1300;3026083;-69
2022/01/20 10:01:42;;;;;;;60.10;23.40;;;;;;;-3.49;71.66;99410.63;25387;1299;3028629;-67
2022/01/20 10:04:37;;;;;;;55.20;23.00;;;;;;;-3.65;73.05;99407.63;25401;1300;3053887;-75
2022/01/20 10:07:34;;;;;;;57.80;24.30;;;;;;;-3.43;72.46;99405.65;25365;1300;3053116;-76
2022/01/20 10:10:08;;;;;;;57.50;24.20;;;;;;;-3.49;72.66;99408.27;25387;1300;3069694;-68
2022/01/20 10:13:03;;;;;;;47.40;20.70;;;;;;;-3.51;73.22;99403.98;25415;1300;3047702;-71
2022/01/20 10:16:11;;;;;;;58.60;21.70;;;;;;;-3.42;73.25;99397.09;25435;1301;3051013;-75
2022/01/20 10:18:53;;;;;;;52.60;20.10;;;;;;;-3.35;73.00;99401.33;25386;1300;3050784;-73
2022/01/20 10:21:34;;;;;;;48.90;19.80;;;;;;;-3.43;73.79;99392.64;25356;1300;3059748;-69
2022/01/20 10:24:26;;;;;;;44.30;16.90;;;;;;;-3.46;74.54;99382.72;25325;1300;3049859;-68
2022/01/20 10:27:16;;;;;;;46.10;18.90;;;;;;;-3.57;75.30;99383.11;25439;1299;3054408;-70
2022/01/20 10:30:03;;;;;;;36.20;15.30;;;;;;;-3.64;76.29;99391.87;25395;1300;3052033;-74
2022/01/20 10:32:46;;;;;;;33.50;14.70;;;;;;;-3.12;74.78;99385.09;25383;1300;3069932;-74
2022/01/20 10:35:18;;;;;;;36.80;15.10;;;;;;;-2.62;73.20;99376.84;25419;1300;3048921;-74
2022/01/20 10:38:09;;;;;;;36.90;14.80;;;;;;;-2.35;72.09;99364.25;25416;1301;3051973;-68
2022/01/20 10:40:50;;;;;;;32.10;15.70;;;;;;;-2.21;71.48;99366.85;25405;1300;3054481;-73
2022/01/20 10:43:20;;;;;;;32.90;13.40;;;;;;;-2.30;71.33;99369.52;25396;1301;3055131;-75
2022/01/20 10:46:00;;;;;;;29.80;14.50;;;;;;;-2.42;71.90;99365.69;25384;1300;3026242;-74
2022/01/20 10:48:29;;;;;;;35.60;14.90;;;;;;;-2.58;73.05;99350.57;25343;1300;3054657;-68
2022/01/20 10:50:59;;;;;;;35.80;15.00;;;;;;;-2.56;72.63;99349.00;25380;1300;3026697;-73
2022/01/20 10:53:28;;;;;;;35.20;15.00;;;;;;;-2.47;73.25;99346.86;25395;1300;3028515;-76
2022/01/20 10:56:05;;;;;;;37.70;16.10;;;;;;;-2.33;72.48;99342.10;25382;1300;3055907;-73
2022/01/20 10:58:34;;;;;;;31.90;13.70;;;;;;;-2.20;71.87;99336.98;25396;1300;3030170;-67
2022/01/20 11:01:14;;;;;;;32.00;14.10;;;;;;;-2.10;71.93;99328.64;25369;1301;3026349;-71
2022/01/20 11:03:43;;;;;;;38.30;15.30;;;;;;;-2.18;71.90;99323.58;25382;1300;3051738;-75
2022/01/20 11:06:12;;;;;;;32.00;14.60;;;;;;;-2.06;71.70;99322.73;25364;1300;3026555;-74
2022/01/20 11:08:46;;;;;;;34.60;14.20;;;;;;;-1.97;71.59;99318.02;25430;1300;3049922;-71
2022/01/20 11:11:30;;;;;;;31.90;14.10;;;;;;;-1.96;71.12;99319.55;25378;1300;3059247;-74
2022/01/20 11:14:11;;;;;;;38.60;15.30;;;;;;;-1.95;71.57;99316.27;25361;1300;3049863;-71
2022/01/20 11:16:40;;;;;;;47.30;16.40;;;;;;;-2.07;71.88;99306.27;25390;1300;3026813;-72
2022/01/20 11:19:17;;;;;;;35.20;14.20;;;;;;;-1.88;71.57;99296.80;25359;1301;3026549;-73
2022/01/20 11:21:46;;;;;;;35.40;14.60;;;;;;;-1.55;70.21;99287.41;25350;1300;3071633;-69
2022/01/20 11:24:23;;;;;;;33.40;15.30;;;;;;;-1.47;69.70;99279.75;25405;1300;3028573;-73
2022/01/20 11:27:12;;;;;;;29.50;12.10;;;;;;;-1.33;69.01;99278.50;25433;1300;3051130;-69
2022/01/20 11:30:01;;;;;;;30.90;13.00;;;;;;;-1.24;68.78;99282.16;25364;1300;3071141;-73
2022/01/20 11:32:42;;;;;;;35.70;13.90;;;;;;;-1.23;68.93;99271.66;25388;1300;3054117;-71
2022/01/20 11:35:20;;;;;;;31.60;13.50;;;;;;;-1.06;68.16;99266.05;25386;1300;3056832;-74
2022/01/20 11:37:57;;;;;;;31.80;13.80;;;;;;;-1.18;68.27;99266.77;25352;1300;3026907;-68
2022/01/20 11:40:26;;;;;;;33.80;13.80;;;;;;;-1.23;68.76;99268.05;25366;1300;3056883;-73
2022/01/20 11:43:40;;;;;;;30.80;13.60;;;;;;;-1.19;68.65;99267.31;25443;1300;3026928;-68
2022/01/20 11:46:15;;;;;;;29.30;12.10;;;;;;;-1.07;68.20;99266.77;25339;1300;3054173;-70
2022/01/20 11:48:56;;;;;;;29.40;13.50;;;;;;;-0.92;67.71;99257.21;25391;1300;3058848;-72
2022/01/20 11:51:27;;;;;;;26.70;12.50;;;;;;;-1.09;68.01;99258.19;25403;1300;3049457;-72
2022/01/20 11:54:01;;;;;;;30.10;12.60;;;;;;;-1.08;67.98;99249.41;25384;1300;3026802;-72
2022/01/20 11:56:37;;;;;;;30.90;12.70;;;;;;;-1.16;68.21;99246.43;25395;1300;3051164;-66
2022/01/20 11:59:09;;;;;;;30.80;14.00;;;;;;;-1.03;67.97;99245.02;25383;1300;3070548;-69
2022/01/20 12:01:44;;;;;;;33.20;13.90;;;;;;;-1.12;68.43;99244.84;25407;1300;3026426;-73
2022/01/20 12:04:15;;;;;;;30.80;12.80;;;;;;;-1.19;68.36;99242.02;25359;1300;3053547;-71
2022/01/20 12:06:49;;;;;;;34.10;13.30;;;;;;;-0.97;68.00;99237.71;25381;1300;3050281;-73
2022/01/20 12:09:30;;;;;;;36.30;13.70;;;;;;;-0.83;67.33;99242.61;25363;1300;3026719;-70
2022/01/20 12:11:59;;;;;;;31.50;13.40;;;;;;;-0.75;67.23;99239.71;25345;1300;3052113;-70
2022/01/20 12:14:35;;;;;;;36.80;14.90;;;;;;;-0.90;67.70;99238.61;25365;1299;3028077;-73
2022/01/20 12:17:06;;;;;;;30.70;14.70;;;;;;;-0.94;67.95;99233.52;25386;1300;3056073;-69
2022/01/20 12:19:35;;;;;;;32.30;15.10;;;;;;;-1.05;68.02;99229.77;25398;1300;3026011;-69
2022/01/20 12:22:05;;;;;;;28.00;13.10;;;;;;;-1.16;68.67;99234.08;25365;1298;3026523;-71
2022/01/20 12:24:35;;;;;;;31.00;13.90;;;;;;;-0.95;67.93;99227.88;25368;1300;3057990;-74
2022/01/20 12:27:16;;;;;;;33.10;13.00;;;;;;;-1.12;68.08;99220.95;25384;1300;3027207;-72
2022/01/20 12:29:45;;;;;;;32.20;14.30;;;;;;;-1.08;68.10;99212.45;25441;1301;3052885;-73
2022/01/20 12:32:16;;;;;;;29.50;12.40;;;;;;;-1.10;67.95;99212.14;25406;1300;3038496;-67
2022/01/20 12:35:01;;;;;;;31.90;14.30;;;;;;;-0.92;67.42;99207.35;25359;1299;3049886;-75
2022/01/20 12:37:32;;;;;;;37.10;13.30;;;;;;;-0.86;66.96;99205.00;25383;1300;3056132;-72
2022/01/20 12:40:01;;;;;;;27.10;12.90;;;;;;;-0.94;67.03;99205.66;25405;1300;3029760;-72
2022/01/20 12:42:35;;;;;;;35.20;13.70;;;;;;;-0.99;67.54;99204.55;25346;1300;3026101;-68
2022/01/20 12:45:55;;;;;;;26.10;12.30;;;;;;;-1.08;67.75;99199.90;25404;1300;3054437;-73
2022/01/20 12:47:53;;;;;;;31.70;12.30;;;;;;;-1.00;66.88;99202.52;25348;1300;3052991;-70
2022/01/20 12:50:22;;;;;;;25.30;10.30;;;;;;;-1.11;67.20;99203.55;25376;1303;3030899;-69
2022/01/20 12:52:53;;;;;;;28.80;11.30;;;;;;;-1.18;67.30;99192.86;25354;1300;3055877;-71
2022/01/20 12:55:22;;;;;;;27.30;12.40;;;;;;;-1.15;67.32;99199.16;25399;1300;3026256;-72
2022/01/20 12:57:59;;;;;;;32.50;13.00;;;;;;;-1.12;67.11;99197.21;25375;1300;3051531;-73
2022/01/20 13:00:27;;;;;;;28.80;12.60;;;;;;;-1.21;67.01;99193.25;25469;1300;3055232;-73
2022/01/20 13:02:56;;;;;;;36.40;13.20;;;;;;;-1.18;67.31;99182.38;25398;1300;3027361;-71
2022/01/20 13:05:28;;;;;;;27.30;12.20;;;;;;;-0.84;66.01;99182.79;25403;1301;3049568;-72
2022/01/20 13:07:58;;;;;;;25.80;11.20;;;;;;;-0.98;65.99;99176.52;25402;1300;3027022;-71
2022/01/20 13:10:33;;;;;;;27.70;11.40;;;;;;;-1.40;67.11;99176.38;25377;1300;3026162;-70
2022/01/20 13:13:05;;;;;;;23.40;12.00;;;;;;;-1.50;67.63;99171.39;25361;1300;3068114;-71
2022/01/20 13:15:34;;;;;;;29.30;12.20;;;;;;;-1.53;67.79;99170.92;25414;1300;3026644;-70
2022/01/20 13:18:08;;;;;;;30.10;11.40;;;;;;;-1.52;67.82;99172.44;25372;1300;3028533;-68
2022/01/20 13:20:41;;;;;;;25.70;11.20;;;;;;;-1.34;67.06;99163.91;25368;1300;3068195;-71
2022/01/20 13:26:01;;;;;;;25.70;12.30;;;;;;;-1.11;66.32;99162.82;25386;1300;3052508;-70
2022/01/20 13:28:30;;;;;;;25.80;11.30;;;;;;;-1.01;65.74;99158.69;25396;1300;3052256;-71
2022/01/20 13:31:14;;;;;;;25.50;11.00;;;;;;;-0.95;65.52;99152.90;25395;1300;3027217;-71
2022/01/20 13:33:44;;;;;;;29.70;12.70;;;;;;;-1.16;65.66;99148.13;25429;1300;3054795;-71
2022/01/20 13:36:13;;;;;;;28.80;11.20;;;;;;;-1.32;66.07;99143.93;25403;1300;3028296;-73
2022/01/20 13:38:48;;;;;;;28.20;12.10;;;;;;;-1.54;66.29;99140.87;25382;1300;3048134;-70
2022/01/20 13:41:19;;;;;;;26.40;11.70;;;;;;;-1.46;66.38;99130.79;25440;1300;3053915;-72
2022/01/20 13:46:43;;;;;;;27.60;11.10;;;;;;;-1.63;66.59;99122.47;25438;1300;3055968;-73
2022/01/20 13:49:18;;;;;;;25.10;10.90;;;;;;;-1.80;66.62;99117.08;25387;1300;3026577;-73
2022/01/20 13:51:46;;;;;;;;;;;;;;;-1.91;67.34;99116.40;25418;1300;3054854;-74
2022/01/20 13:54:15;;;;;;;26.50;11.50;;;;;;;-2.02;67.80;99118.27;25368;1300;3026294;-73
2022/01/20 13:56:51;;;;;;;32.90;11.60;;;;;;;-2.12;68.10;99123.91;25118;1300;3386133;-69
2022/01/20 13:59:20;;;;;;;26.50;10.80;;;;;;;-2.22;68.29;99115.81;25412;1300;3052614;-69
2022/01/20 14:01:49;;;;;;;28.40;11.40;;;;;;;-2.21;68.05;99117.02;25386;1300;3027185;-71
2022/01/20 14:04:18;;;;;;;25.90;11.10;;;;;;;-2.45;68.89;99115.98;25409;1300;3052071;-66
2022/01/20 14:06:47;;;;;;;25.00;11.40;;;;;;;-2.57;69.10;99114.73;25405;1300;3026224;-74
2022/01/20 14:09:16;;;;;;;31.90;11.80;;;;;;;-2.51;68.95;99107.13;25385;1300;3055759;-69
2022/01/20 14:11:47;;;;;;;24.80;10.00;;;;;;;-2.54;69.24;99108.36;25359;1301;3026829;-74
2022/01/20 14:14:16;;;;;;;37.20;12.80;;;;;;;-2.59;69.39;99106.02;25385;1301;3053876;-71
2022/01/20 14:16:46;;;;;;;33.90;13.60;;;;;;;-2.58;69.42;99102.41;25370;1300;3026079;-72
2022/01/20 14:19:21;;;;;;;31.30;12.70;;;;;;;-2.69;69.48;99099.45;25397;1301;3051347;-72
2022/01/20 14:21:50;;;;;;;36.40;15.30;;;;;;;-2.79;70.08;99095.48;25350;1301;3051178;-74
2022/01/20 14:24:19;;;;;;;35.60;14.90;;;;;;;-2.82;70.23;99093.80;25364;1301;3027371;-71
2022/01/20 14:26:48;;;;;;;40.80;17.60;;;;;;;-2.88;70.62;99095.06;25395;1301;3051765;-72
2022/01/20 14:29:17;;;;;;;49.70;18.20;;;;;;;-2.97;71.07;99099.11;25412;1299;3027114;-69
2022/01/20 14:31:46;;;;;;;50.30;19.30;;;;;;;-2.98;71.30;99098.78;25383;1301;3050982;-66